AAL1642 KMCO-KMIA
Flight info
| Callsign | AAL1642 |
|---|---|
| Flight time | 0h 44m |
| Altitude | 23000 |
| Route | DDANY3 DDANY CSTAL3 |
| Aircraft | A319/M-SDE3FGHIRWY/LB1 |
Departure
| Time | 2026-05-04 03:03 |
|---|---|
| Airport | Orlando International Airport (KMCO) |
Arrival
| Time | 2026-05-04 03:47 |
|---|---|
| Airport | Miami International Airport (KMIA) |
| Time | Latitude | Longitude | Altitude | Speed | Heading |
|---|---|---|---|---|---|
| 2026-05-04 02:35 | 28.42772 | -81.31493 | 102 ft | 0 kts | 54° |
| 2026-05-04 02:51 | 28.42772 | -81.31494 | 102 ft | 2 kts | 54° |
| 2026-05-04 02:51 | 28.42758 | -81.31518 | 101 ft | 4 kts | 60° |
| 2026-05-04 02:52 | 28.42745 | -81.31545 | 100 ft | 4 kts | 66° |
| 2026-05-04 02:52 | 28.42735 | -81.31573 | 101 ft | 4 kts | 71° |
| 2026-05-04 02:52 | 28.42727 | -81.31602 | 101 ft | 4 kts | 75° |
| 2026-05-04 02:52 | 28.42720 | -81.31632 | 100 ft | 4 kts | 66° |
| 2026-05-04 02:53 | 28.42708 | -81.31651 | 101 ft | 3 kts | 359° |
| 2026-05-04 02:53 | 28.42701 | -81.31650 | 102 ft | 0 kts | 347° |
| 2026-05-04 02:55 | 28.42701 | -81.31651 | 101 ft | 0 kts | 347° |
| 2026-05-04 02:57 | 28.42703 | -81.31651 | 101 ft | 1 kts | 342° |
| 2026-05-04 02:58 | 28.42710 | -81.31699 | 101 ft | 9 kts | 274° |
| 2026-05-04 02:58 | 28.42711 | -81.31776 | 101 ft | 9 kts | 260° |
| 2026-05-04 02:58 | 28.42681 | -81.31831 | 103 ft | 8 kts | 217° |
| 2026-05-04 02:58 | 28.42634 | -81.31837 | 103 ft | 7 kts | 166° |
| 2026-05-04 02:59 | 28.42568 | -81.31832 | 102 ft | 15 kts | 180° |
| 2026-05-04 02:59 | 28.42426 | -81.31831 | 102 ft | 24 kts | 180° |
| 2026-05-04 02:59 | 28.42250 | -81.31843 | 104 ft | 25 kts | 190° |
| 2026-05-04 02:59 | 28.42071 | -81.31877 | 100 ft | 27 kts | 186° |
| 2026-05-04 03:00 | 28.41881 | -81.31885 | 101 ft | 28 kts | 179° |
| 2026-05-04 03:00 | 28.41688 | -81.31883 | 97 ft | 28 kts | 179° |
| 2026-05-04 03:00 | 28.41499 | -81.31916 | 96 ft | 16 kts | 205° |
| 2026-05-04 03:00 | 28.41493 | -81.31923 | 96 ft | 0 kts | 231° |
| 2026-05-04 03:01 | 28.41523 | -81.31943 | 98 ft | 10 kts | 323° |
| 2026-05-04 03:01 | 28.41535 | -81.32012 | 95 ft | 10 kts | 275° |
| 2026-05-04 03:01 | 28.41541 | -81.32084 | 96 ft | 9 kts | 275° |
| 2026-05-04 03:01 | 28.41554 | -81.32151 | 97 ft | 9 kts | 283° |
| 2026-05-04 03:02 | 28.41594 | -81.32194 | 99 ft | 9 kts | 348° |
| 2026-05-04 03:02 | 28.41713 | -81.32202 | 95 ft | 41 kts | 359° |
| 2026-05-04 03:02 | 28.42284 | -81.32203 | 103 ft | 117 kts | 0° |
| 2026-05-04 03:02 | 28.43301 | -81.32206 | 130 ft | 169 kts | 0° |
| 2026-05-04 03:03 | 28.44485 | -81.32236 | 739 ft | 170 kts | 0° |
| 2026-05-04 03:03 | 28.45662 | -81.32222 | 1378 ft | 170 kts | 12° |
| 2026-05-04 03:03 | 28.46692 | -81.31591 | 1908 ft | 173 kts | 45° |
| 2026-05-04 03:03 | 28.47313 | -81.30335 | 2162 ft | 196 kts | 67° |
| 2026-05-04 03:04 | 28.47853 | -81.28805 | 2381 ft | 221 kts | 67° |
| 2026-05-04 03:04 | 28.48452 | -81.27100 | 2701 ft | 243 kts | 68° |
| 2026-05-04 03:04 | 28.49087 | -81.25291 | 3351 ft | 248 kts | 68° |
| 2026-05-04 03:04 | 28.49731 | -81.23460 | 4068 ft | 251 kts | 68° |
| 2026-05-04 03:05 | 28.50335 | -81.21602 | 4703 ft | 257 kts | 75° |
| 2026-05-04 03:05 | 28.50704 | -81.19586 | 4968 ft | 262 kts | 78° |
| 2026-05-04 03:05 | 28.51041 | -81.17542 | 5012 ft | 263 kts | 83° |
| 2026-05-04 03:05 | 28.50895 | -81.15468 | 5136 ft | 269 kts | 104° |
| 2026-05-04 03:06 | 28.50390 | -81.13391 | 5869 ft | 269 kts | 104° |
| 2026-05-04 03:06 | 28.49922 | -81.11348 | 6490 ft | 273 kts | 104° |
| 2026-05-04 03:06 | 28.49452 | -81.09232 | 7111 ft | 278 kts | 104° |
| 2026-05-04 03:06 | 28.48966 | -81.07092 | 7720 ft | 282 kts | 107° |
| 2026-05-04 03:07 | 28.48135 | -81.05055 | 8302 ft | 286 kts | 123° |
| 2026-05-04 03:07 | 28.46825 | -81.03346 | 8870 ft | 290 kts | 139° |
| 2026-05-04 03:07 | 28.45236 | -81.01898 | 9409 ft | 294 kts | 141° |
| 2026-05-04 03:07 | 28.43622 | -81.00436 | 9918 ft | 300 kts | 142° |
| 2026-05-04 03:08 | 28.41961 | -80.98930 | 10171 ft | 315 kts | 143° |
| 2026-05-04 03:08 | 28.40205 | -80.97339 | 10309 ft | 330 kts | 143° |
| 2026-05-04 03:08 | 28.38389 | -80.95690 | 10618 ft | 337 kts | 143° |
| 2026-05-04 03:08 | 28.36555 | -80.94019 | 11036 ft | 339 kts | 144° |
| 2026-05-04 03:09 | 28.34766 | -80.92384 | 12016 ft | 319 kts | 144° |
| 2026-05-04 03:09 | 28.33098 | -80.90853 | 13180 ft | 298 kts | 146° |
| 2026-05-04 03:09 | 28.31457 | -80.89356 | 13832 ft | 312 kts | 147° |
| 2026-05-04 03:09 | 28.29714 | -80.87730 | 14099 ft | 338 kts | 142° |
| 2026-05-04 03:10 | 28.28093 | -80.85643 | 14332 ft | 367 kts | 129° |
| 2026-05-04 03:10 | 28.26821 | -80.83061 | 14885 ft | 383 kts | 117° |
| 2026-05-04 03:10 | 28.25824 | -80.80237 | 15561 ft | 389 kts | 116° |
| 2026-05-04 03:10 | 28.24805 | -80.77366 | 16221 ft | 394 kts | 116° |
| 2026-05-04 03:11 | 28.23762 | -80.74470 | 16870 ft | 399 kts | 117° |
| 2026-05-04 03:11 | 28.22473 | -80.71691 | 17499 ft | 397 kts | 130° |
| 2026-05-04 03:11 | 28.20731 | -80.69292 | 18153 ft | 392 kts | 143° |
| 2026-05-04 03:11 | 28.18642 | -80.67359 | 18803 ft | 385 kts | 154° |
| 2026-05-04 03:12 | 28.16334 | -80.65961 | 19446 ft | 378 kts | 166° |
| 2026-05-04 03:12 | 28.13849 | -80.65065 | 20072 ft | 375 kts | 173° |
| 2026-05-04 03:12 | 28.11313 | -80.64314 | 20718 ft | 378 kts | 173° |
| 2026-05-04 03:12 | 28.08760 | -80.63555 | 21335 ft | 381 kts | 173° |
| 2026-05-04 03:13 | 28.06188 | -80.62788 | 21917 ft | 384 kts | 173° |
| 2026-05-04 03:13 | 28.03593 | -80.62010 | 22509 ft | 387 kts | 173° |
| 2026-05-04 03:13 | 28.00976 | -80.61223 | 22960 ft | 391 kts | 173° |
| 2026-05-04 03:13 | 27.98347 | -80.60431 | 23068 ft | 388 kts | 173° |
| 2026-05-04 03:14 | 27.95752 | -80.59647 | 23091 ft | 385 kts | 173° |
| 2026-05-04 03:14 | 27.93167 | -80.58868 | 23091 ft | 384 kts | 173° |
| 2026-05-04 03:14 | 27.90585 | -80.58094 | 23091 ft | 383 kts | 174° |
| 2026-05-04 03:14 | 27.88011 | -80.57327 | 23091 ft | 383 kts | 174° |
| 2026-05-04 03:15 | 27.85437 | -80.56559 | 23092 ft | 383 kts | 174° |
| 2026-05-04 03:15 | 27.82860 | -80.55788 | 23100 ft | 382 kts | 173° |
| 2026-05-04 03:15 | 27.80289 | -80.55020 | 23100 ft | 382 kts | 174° |
| 2026-05-04 03:15 | 27.77722 | -80.54254 | 23100 ft | 382 kts | 174° |
| 2026-05-04 03:16 | 27.75182 | -80.53497 | 23098 ft | 383 kts | 174° |
| 2026-05-04 03:16 | 27.72607 | -80.52732 | 23098 ft | 382 kts | 174° |
| 2026-05-04 03:16 | 27.70038 | -80.51965 | 23090 ft | 382 kts | 173° |
| 2026-05-04 03:16 | 27.67463 | -80.51191 | 23081 ft | 383 kts | 173° |
| 2026-05-04 03:17 | 27.64892 | -80.50397 | 23085 ft | 384 kts | 172° |
| 2026-05-04 03:17 | 27.62334 | -80.49483 | 23086 ft | 387 kts | 170° |
| 2026-05-04 03:17 | 27.59789 | -80.48476 | 23088 ft | 388 kts | 168° |
| 2026-05-04 03:17 | 27.57256 | -80.47428 | 23089 ft | 388 kts | 168° |
| 2026-05-04 03:18 | 27.54721 | -80.46368 | 23089 ft | 388 kts | 168° |
| 2026-05-04 03:18 | 27.52189 | -80.45320 | 23087 ft | 388 kts | 168° |
| 2026-05-04 03:18 | 27.49649 | -80.44291 | 23084 ft | 387 kts | 169° |
| 2026-05-04 03:18 | 27.47110 | -80.43281 | 23080 ft | 388 kts | 169° |
| 2026-05-04 03:19 | 27.44564 | -80.42278 | 23076 ft | 388 kts | 169° |
| 2026-05-04 03:19 | 27.42015 | -80.41277 | 23078 ft | 388 kts | 169° |
| 2026-05-04 03:19 | 27.39466 | -80.40274 | 23079 ft | 388 kts | 169° |
| 2026-05-04 03:19 | 27.36918 | -80.39269 | 23079 ft | 388 kts | 169° |
| 2026-05-04 03:20 | 27.34375 | -80.38263 | 23081 ft | 388 kts | 169° |
| 2026-05-04 03:20 | 27.31823 | -80.37255 | 23081 ft | 388 kts | 169° |
| 2026-05-04 03:20 | 27.29273 | -80.36251 | 23082 ft | 389 kts | 169° |
| 2026-05-04 03:20 | 27.26719 | -80.35249 | 23083 ft | 389 kts | 169° |
| 2026-05-04 03:21 | 27.24162 | -80.34245 | 23083 ft | 389 kts | 169° |
| 2026-05-04 03:21 | 27.21610 | -80.33238 | 23085 ft | 389 kts | 169° |
| 2026-05-04 03:21 | 27.19053 | -80.32231 | 23083 ft | 389 kts | 169° |
| 2026-05-04 03:21 | 27.16493 | -80.31233 | 23079 ft | 389 kts | 169° |
| 2026-05-04 03:22 | 27.13938 | -80.30241 | 23077 ft | 389 kts | 169° |
| 2026-05-04 03:22 | 27.11373 | -80.29244 | 23077 ft | 390 kts | 169° |
| 2026-05-04 03:22 | 27.08809 | -80.28246 | 23076 ft | 390 kts | 169° |
| 2026-05-04 03:22 | 27.06250 | -80.27253 | 23076 ft | 390 kts | 169° |
| 2026-05-04 03:23 | 27.03714 | -80.26273 | 23072 ft | 390 kts | 169° |
| 2026-05-04 03:23 | 27.01111 | -80.25272 | 23072 ft | 390 kts | 169° |
| 2026-05-04 03:23 | 26.98542 | -80.24281 | 23073 ft | 391 kts | 169° |
| 2026-05-04 03:23 | 26.96008 | -80.23299 | 23071 ft | 391 kts | 169° |
| 2026-05-04 03:24 | 26.93428 | -80.22301 | 22912 ft | 394 kts | 169° |
| 2026-05-04 03:24 | 26.90820 | -80.21295 | 22222 ft | 397 kts | 169° |
| 2026-05-04 03:24 | 26.88213 | -80.20286 | 21755 ft | 394 kts | 168° |
| 2026-05-04 03:24 | 26.85628 | -80.19281 | 21275 ft | 392 kts | 168° |
| 2026-05-04 03:25 | 26.83062 | -80.18303 | 20790 ft | 388 kts | 169° |
| 2026-05-04 03:25 | 26.80509 | -80.17351 | 20314 ft | 385 kts | 169° |
| 2026-05-04 03:25 | 26.77969 | -80.16414 | 19836 ft | 383 kts | 169° |
| 2026-05-04 03:25 | 26.75454 | -80.15491 | 19363 ft | 379 kts | 169° |
| 2026-05-04 03:26 | 26.72957 | -80.14574 | 18891 ft | 376 kts | 169° |
| 2026-05-04 03:26 | 26.70483 | -80.13685 | 18541 ft | 368 kts | 171° |
| 2026-05-04 03:26 | 26.68061 | -80.12932 | 18272 ft | 357 kts | 173° |
| 2026-05-04 03:26 | 26.65658 | -80.12278 | 17810 ft | 354 kts | 174° |
| 2026-05-04 03:27 | 26.63268 | -80.11673 | 17262 ft | 351 kts | 175° |
| 2026-05-04 03:27 | 26.60886 | -80.11079 | 16748 ft | 351 kts | 174° |
| 2026-05-04 03:27 | 26.58505 | -80.10480 | 16244 ft | 350 kts | 174° |
| 2026-05-04 03:27 | 26.56139 | -80.09897 | 15840 ft | 347 kts | 174° |
| 2026-05-04 03:28 | 26.53789 | -80.09329 | 15435 ft | 343 kts | 174° |
| 2026-05-04 03:28 | 26.51470 | -80.08759 | 15032 ft | 341 kts | 174° |
| 2026-05-04 03:28 | 26.49165 | -80.08189 | 14637 ft | 338 kts | 173° |
| 2026-05-04 03:28 | 26.46882 | -80.07621 | 14234 ft | 335 kts | 173° |
| 2026-05-04 03:29 | 26.44608 | -80.07072 | 13832 ft | 333 kts | 174° |
| 2026-05-04 03:29 | 26.42345 | -80.06571 | 13430 ft | 330 kts | 174° |
| 2026-05-04 03:29 | 26.40097 | -80.06099 | 13023 ft | 328 kts | 174° |
| 2026-05-04 03:29 | 26.38612 | -80.05779 | 12758 ft | 327 kts | 173° |
| 2026-05-04 03:30 | 26.36396 | -80.05231 | 12365 ft | 325 kts | 171° |
| 2026-05-04 03:30 | 26.34204 | -80.04637 | 11962 ft | 323 kts | 170° |
| 2026-05-04 03:30 | 26.32037 | -80.04027 | 11554 ft | 317 kts | 170° |
| 2026-05-04 03:30 | 26.29941 | -80.03429 | 11164 ft | 308 kts | 170° |
| 2026-05-04 03:31 | 26.27870 | -80.02845 | 10761 ft | 306 kts | 170° |
| 2026-05-04 03:31 | 26.25793 | -80.02426 | 10359 ft | 300 kts | 180° |
| 2026-05-04 03:31 | 26.23736 | -80.02556 | 9953 ft | 294 kts | 193° |
| 2026-05-04 03:31 | 26.21744 | -80.03015 | 9551 ft | 291 kts | 194° |
| 2026-05-04 03:32 | 26.19767 | -80.03466 | 9148 ft | 289 kts | 194° |
| 2026-05-04 03:32 | 26.17803 | -80.03912 | 8753 ft | 286 kts | 194° |
| 2026-05-04 03:32 | 26.15859 | -80.04354 | 8349 ft | 284 kts | 194° |
| 2026-05-04 03:32 | 26.13968 | -80.04786 | 8123 ft | 279 kts | 194° |
| 2026-05-04 03:33 | 26.12065 | -80.05219 | 7996 ft | 279 kts | 193° |
| 2026-05-04 03:33 | 26.10166 | -80.05655 | 7871 ft | 278 kts | 193° |
| 2026-05-04 03:33 | 26.08268 | -80.06092 | 7764 ft | 278 kts | 193° |
| 2026-05-04 03:33 | 26.06359 | -80.06535 | 8355 ft | 281 kts | 194° |
| 2026-05-04 03:34 | 26.04432 | -80.07014 | 8811 ft | 284 kts | 195° |
| 2026-05-04 03:34 | 26.02507 | -80.07514 | 8959 ft | 284 kts | 195° |
| 2026-05-04 03:34 | 26.00587 | -80.08020 | 8985 ft | 283 kts | 195° |
| 2026-05-04 03:34 | 25.98668 | -80.08526 | 8989 ft | 283 kts | 195° |
| 2026-05-04 03:35 | 25.96756 | -80.09028 | 8989 ft | 283 kts | 195° |
| 2026-05-04 03:35 | 25.94841 | -80.09529 | 8990 ft | 283 kts | 195° |
| 2026-05-04 03:35 | 25.92979 | -80.10209 | 8986 ft | 281 kts | 208° |
| 2026-05-04 03:35 | 25.91364 | -80.11396 | 8989 ft | 278 kts | 223° |
| 2026-05-04 03:36 | 25.90034 | -80.12952 | 8997 ft | 278 kts | 229° |
| 2026-05-04 03:36 | 25.88832 | -80.14629 | 8994 ft | 277 kts | 239° |
| 2026-05-04 03:36 | 25.88084 | -80.16594 | 8998 ft | 278 kts | 255° |
| 2026-05-04 03:36 | 25.87862 | -80.18723 | 9000 ft | 278 kts | 268° |
| 2026-05-04 03:37 | 25.87821 | -80.20878 | 8993 ft | 279 kts | 267° |
| 2026-05-04 03:37 | 25.87760 | -80.23035 | 8599 ft | 280 kts | 266° |
| 2026-05-04 03:37 | 25.87687 | -80.25171 | 8034 ft | 283 kts | 266° |
| 2026-05-04 03:37 | 25.87609 | -80.27388 | 7267 ft | 292 kts | 266° |
| 2026-05-04 03:38 | 25.87528 | -80.29666 | 6461 ft | 296 kts | 266° |
| 2026-05-04 03:38 | 25.87465 | -80.31944 | 5719 ft | 293 kts | 267° |
| 2026-05-04 03:38 | 25.87409 | -80.34150 | 5364 ft | 276 kts | 266° |
| 2026-05-04 03:38 | 25.87334 | -80.36198 | 5174 ft | 255 kts | 266° |
| 2026-05-04 03:39 | 25.87240 | -80.38092 | 5009 ft | 236 kts | 265° |
| 2026-05-04 03:39 | 25.87138 | -80.39858 | 4825 ft | 227 kts | 265° |
| 2026-05-04 03:39 | 25.87030 | -80.41593 | 4591 ft | 224 kts | 265° |
| 2026-05-04 03:39 | 25.86920 | -80.43319 | 4403 ft | 224 kts | 265° |
| 2026-05-04 03:40 | 25.86807 | -80.45043 | 4252 ft | 225 kts | 265° |
| 2026-05-04 03:40 | 25.86689 | -80.46759 | 4136 ft | 225 kts | 265° |
| 2026-05-04 03:40 | 25.86570 | -80.48484 | 4071 ft | 224 kts | 264° |
| 2026-05-04 03:40 | 25.86436 | -80.50231 | 3810 ft | 233 kts | 260° |
| 2026-05-04 03:41 | 25.85883 | -80.51965 | 3050 ft | 248 kts | 234° |
| 2026-05-04 03:41 | 25.84570 | -80.53218 | 2282 ft | 253 kts | 202° |
| 2026-05-04 03:41 | 25.82901 | -80.53541 | 2048 ft | 236 kts | 174° |
| 2026-05-04 03:41 | 25.81400 | -80.53081 | 1991 ft | 217 kts | 151° |
| 2026-05-04 03:42 | 25.80261 | -80.52094 | 1987 ft | 202 kts | 129° |
| 2026-05-04 03:42 | 25.79545 | -80.50792 | 1991 ft | 191 kts | 111° |
| 2026-05-04 03:42 | 25.79277 | -80.49458 | 1991 ft | 169 kts | 93° |
| 2026-05-04 03:42 | 25.79303 | -80.48271 | 1978 ft | 146 kts | 86° |
| 2026-05-04 03:43 | 25.79349 | -80.47169 | 1979 ft | 139 kts | 86° |
| 2026-05-04 03:43 | 25.79398 | -80.46029 | 2007 ft | 162 kts | 86° |
| 2026-05-04 03:43 | 25.79457 | -80.44673 | 2005 ft | 184 kts | 86° |
| 2026-05-04 03:43 | 25.79518 | -80.43241 | 1991 ft | 187 kts | 87° |
| 2026-05-04 03:44 | 25.79580 | -80.41802 | 1966 ft | 187 kts | 86° |
| 2026-05-04 03:44 | 25.79641 | -80.40362 | 1791 ft | 187 kts | 86° |
| 2026-05-04 03:44 | 25.79700 | -80.38982 | 1590 ft | 171 kts | 86° |
| 2026-05-04 03:44 | 25.79751 | -80.37743 | 1370 ft | 150 kts | 86° |
| 2026-05-04 03:45 | 25.79797 | -80.36638 | 1177 ft | 139 kts | 86° |
| 2026-05-04 03:45 | 25.79841 | -80.35581 | 1000 ft | 135 kts | 85° |
| 2026-05-04 03:45 | 25.79884 | -80.34550 | 828 ft | 133 kts | 85° |
| 2026-05-04 03:45 | 25.79927 | -80.33522 | 653 ft | 133 kts | 86° |
| 2026-05-04 03:46 | 25.79970 | -80.32501 | 478 ft | 132 kts | 86° |
| 2026-05-04 03:46 | 25.80013 | -80.31483 | 303 ft | 132 kts | 86° |
| 2026-05-04 03:46 | 25.80056 | -80.30466 | 125 ft | 132 kts | 86° |
| 2026-05-04 03:46 | 25.80098 | -80.29472 | 15 ft | 118 kts | 87° |
| 2026-05-04 03:47 | 25.80125 | -80.28884 | 17 ft | 34 kts | 88° |
| 2026-05-04 03:47 | 25.80072 | -80.28801 | 18 ft | 15 kts | 187° |
| 2026-05-04 03:47 | 25.79963 | -80.28829 | 16 ft | 17 kts | 183° |
| 2026-05-04 03:47 | 25.79844 | -80.28821 | 15 ft | 9 kts | 173° |
| 2026-05-04 03:48 | 25.79838 | -80.28820 | 15 ft | 1 kts | 172° |
| 2026-05-04 03:48 | 25.79825 | -80.28820 | 17 ft | 3 kts | 177° |
| 2026-05-04 03:48 | 25.79786 | -80.28818 | 15 ft | 7 kts | 178° |
| 2026-05-04 03:48 | 25.79732 | -80.28816 | 15 ft | 8 kts | 178° |
| 2026-05-04 03:49 | 25.79673 | -80.28805 | 17 ft | 9 kts | 167° |
| 2026-05-04 03:49 | 25.79645 | -80.28751 | 17 ft | 9 kts | 107° |
| 2026-05-04 03:49 | 25.79625 | -80.28683 | 15 ft | 10 kts | 110° |
| 2026-05-04 03:49 | 25.79613 | -80.28606 | 15 ft | 11 kts | 95° |
| 2026-05-04 03:50 | 25.79609 | -80.28574 | 15 ft | 4 kts | 100° |
| 2026-05-04 03:50 | 25.79597 | -80.28544 | 16 ft | 5 kts | 120° |
| 2026-05-04 03:50 | 25.79575 | -80.28502 | 16 ft | 8 kts | 120° |
| 2026-05-04 03:50 | 25.79562 | -80.28477 | 15 ft | 1 kts | 117° |
| 2026-05-04 03:51 | 25.79562 | -80.28476 | 15 ft | 0 kts | 117° |